sensor_id;sensor_type;location;lat;lon;timestamp;temperature;humidity
40023;DHT22;25713;-35.352;149.036;2023-07-29T00:00:36;11.60;95.70
40023;DHT22;25713;-35.352;149.036;2023-07-29T00:03:05;11.70;95.70
40023;DHT22;25713;-35.352;149.036;2023-07-29T00:05:35;11.70;95.80
40023;DHT22;25713;-35.352;149.036;2023-07-29T00:08:05;11.70;95.90
40023;DHT22;25713;-35.352;149.036;2023-07-29T00:10:38;11.70;96.00
40023;DHT22;25713;-35.352;149.036;2023-07-29T00:13:09;11.70;96.20
40023;DHT22;25713;-35.352;149.036;2023-07-29T00:15:40;11.80;96.80
40023;DHT22;25713;-35.352;149.036;2023-07-29T00:18:09;11.80;97.40
40023;DHT22;25713;-35.352;149.036;2023-07-29T00:20:39;11.90;97.00
40023;DHT22;25713;-35.352;149.036;2023-07-29T00:23:09;11.90;97.20
40023;DHT22;25713;-35.352;149.036;2023-07-29T00:25:40;12.00;97.70
40023;DHT22;25713;-35.352;149.036;2023-07-29T00:28:09;12.10;97.50
40023;DHT22;25713;-35.352;149.036;2023-07-29T00:30:40;12.10;97.30
40023;DHT22;25713;-35.352;149.036;2023-07-29T00:33:10;12.20;97.60
40023;DHT22;25713;-35.352;149.036;2023-07-29T00:35:41;12.20;97.60
40023;DHT22;25713;-35.352;149.036;2023-07-29T00:38:10;12.30;97.30
40023;DHT22;25713;-35.352;149.036;2023-07-29T00:40:43;12.30;97.10
40023;DHT22;25713;-35.352;149.036;2023-07-29T00:43:12;12.30;97.40
40023;DHT22;25713;-35.352;149.036;2023-07-29T00:45:44;12.30;97.80
40023;DHT22;25713;-35.352;149.036;2023-07-29T00:48:16;12.40;97.80
40023;DHT22;25713;-35.352;149.036;2023-07-29T00:50:45;12.30;97.60
40023;DHT22;25713;-35.352;149.036;2023-07-29T00:53:15;12.30;97.60
40023;DHT22;25713;-35.352;149.036;2023-07-29T00:55:47;12.40;97.80
40023;DHT22;25713;-35.352;149.036;2023-07-29T00:58:17;12.40;97.70
40023;DHT22;25713;-35.352;149.036;2023-07-29T01:00:48;12.40;97.50
40023;DHT22;25713;-35.352;149.036;2023-07-29T01:03:18;12.40;98.10
40023;DHT22;25713;-35.352;149.036;2023-07-29T01:05:56;12.40;97.80
40023;DHT22;25713;-35.352;149.036;2023-07-29T01:08:37;12.50;97.90
40023;DHT22;25713;-35.352;149.036;2023-07-29T01:11:19;12.50;97.70
40023;DHT22;25713;-35.352;149.036;2023-07-29T01:13:53;12.60;98.00
40023;DHT22;25713;-35.352;149.036;2023-07-29T01:16:28;12.50;97.60
40023;DHT22;25713;-35.352;149.036;2023-07-29T01:19:05;12.60;98.20
40023;DHT22;25713;-35.352;149.036;2023-07-29T01:21:36;12.60;98.50
40023;DHT22;25713;-35.352;149.036;2023-07-29T01:24:08;12.60;98.40
40023;DHT22;25713;-35.352;149.036;2023-07-29T01:26:38;12.50;98.50
40023;DHT22;25713;-35.352;149.036;2023-07-29T01:29:07;12.60;98.70
40023;DHT22;25713;-35.352;149.036;2023-07-29T01:31:42;12.50;98.40
40023;DHT22;25713;-35.352;149.036;2023-07-29T01:34:17;12.70;98.60
40023;DHT22;25713;-35.352;149.036;2023-07-29T01:36:52;12.70;98.30
40023;DHT22;25713;-35.352;149.036;2023-07-29T01:39:27;12.80;98.10
40023;DHT22;25713;-35.352;149.036;2023-07-29T01:41:59;12.80;97.90
40023;DHT22;25713;-35.352;149.036;2023-07-29T01:44:30;12.90;98.10
40023;DHT22;25713;-35.352;149.036;2023-07-29T01:47:01;13.00;97.80
40023;DHT22;25713;-35.352;149.036;2023-07-29T01:49:31;13.00;97.20
40023;DHT22;25713;-35.352;149.036;2023-07-29T01:52:01;13.10;96.80
40023;DHT22;25713;-35.352;149.036;2023-07-29T01:54:33;13.20;96.50
40023;DHT22;25713;-35.352;149.036;2023-07-29T01:57:03;13.20;96.20
40023;DHT22;25713;-35.352;149.036;2023-07-29T01:59:33;13.20;96.40
40023;DHT22;25713;-35.352;149.036;2023-07-29T02:02:03;13.10;96.20
40023;DHT22;25713;-35.352;149.036;2023-07-29T02:04:32;13.20;96.40
40023;DHT22;25713;-35.352;149.036;2023-07-29T02:07:02;13.20;96.10
40023;DHT22;25713;-35.352;149.036;2023-07-29T02:09:33;13.20;96.10
40023;DHT22;25713;-35.352;149.036;2023-07-29T02:12:03;13.20;95.90
40023;DHT22;25713;-35.352;149.036;2023-07-29T02:14:40;13.30;95.90
40023;DHT22;25713;-35.352;149.036;2023-07-29T02:17:09;13.30;95.80
40023;DHT22;25713;-35.352;149.036;2023-07-29T02:19:39;13.40;95.60
40023;DHT22;25713;-35.352;149.036;2023-07-29T02:22:08;13.40;95.50
40023;DHT22;25713;-35.352;149.036;2023-07-29T02:24:40;13.60;94.90
40023;DHT22;25713;-35.352;149.036;2023-07-29T02:27:10;13.60;94.80
40023;DHT22;25713;-35.352;149.036;2023-07-29T02:29:39;13.70;94.60
40023;DHT22;25713;-35.352;149.036;2023-07-29T02:32:08;13.70;94.60
40023;DHT22;25713;-35.352;149.036;2023-07-29T02:34:38;13.80;94.40
40023;DHT22;25713;-35.352;149.036;2023-07-29T02:37:08;13.90;94.10
40023;DHT22;25713;-35.352;149.036;2023-07-29T02:39:41;13.90;94.10
40023;DHT22;25713;-35.352;149.036;2023-07-29T02:42:10;13.80;94.00
40023;DHT22;25713;-35.352;149.036;2023-07-29T02:44:41;13.80;93.90
40023;DHT22;25713;-35.352;149.036;2023-07-29T02:47:10;13.80;93.90
40023;DHT22;25713;-35.352;149.036;2023-07-29T02:49:40;13.80;93.90
40023;DHT22;25713;-35.352;149.036;2023-07-29T02:52:10;13.80;94.00
40023;DHT22;25713;-35.352;149.036;2023-07-29T02:54:41;13.70;94.00
40023;DHT22;25713;-35.352;149.036;2023-07-29T02:57:11;13.70;94.10
40023;DHT22;25713;-35.352;149.036;2023-07-29T02:59:41;13.70;94.00
40023;DHT22;25713;-35.352;149.036;2023-07-29T03:02:10;13.70;93.90
40023;DHT22;25713;-35.352;149.036;2023-07-29T03:04:40;13.90;93.80
40023;DHT22;25713;-35.352;149.036;2023-07-29T03:07:09;13.90;93.60
40023;DHT22;25713;-35.352;149.036;2023-07-29T03:09:41;13.90;93.60
40023;DHT22;25713;-35.352;149.036;2023-07-29T03:12:10;13.90;93.50
40023;DHT22;25713;-35.352;149.036;2023-07-29T03:14:40;13.90;93.30
40023;DHT22;25713;-35.352;149.036;2023-07-29T03:17:10;13.80;93.40
40023;DHT22;25713;-35.352;149.036;2023-07-29T03:19:40;13.80;93.60
40023;DHT22;25713;-35.352;149.036;2023-07-29T03:22:09;13.70;93.40
40023;DHT22;25713;-35.352;149.036;2023-07-29T03:24:41;13.70;93.80
40023;DHT22;25713;-35.352;149.036;2023-07-29T03:27:11;13.70;93.80
40023;DHT22;25713;-35.352;149.036;2023-07-29T03:29:40;13.70;93.60
40023;DHT22;25713;-35.352;149.036;2023-07-29T03:32:10;13.70;93.70
40023;DHT22;25713;-35.352;149.036;2023-07-29T03:34:40;13.70;94.20
40023;DHT22;25713;-35.352;149.036;2023-07-29T03:37:10;13.80;94.60
40023;DHT22;25713;-35.352;149.036;2023-07-29T03:39:41;13.80;94.90
40023;DHT22;25713;-35.352;149.036;2023-07-29T03:42:11;13.70;94.70
40023;DHT22;25713;-35.352;149.036;2023-07-29T03:44:40;13.70;95.50
40023;DHT22;25713;-35.352;149.036;2023-07-29T03:47:10;13.80;96.00
40023;DHT22;25713;-35.352;149.036;2023-07-29T03:49:41;13.80;95.80
40023;DHT22;25713;-35.352;149.036;2023-07-29T03:52:11;13.80;95.70
40023;DHT22;25713;-35.352;149.036;2023-07-29T03:54:43;13.90;95.40
40023;DHT22;25713;-35.352;149.036;2023-07-29T03:57:13;13.90;95.40
40023;DHT22;25713;-35.352;149.036;2023-07-29T03:59:42;13.90;95.10
40023;DHT22;25713;-35.352;149.036;2023-07-29T04:02:12;13.90;95.10
40023;DHT22;25713;-35.352;149.036;2023-07-29T04:04:42;13.90;95.10
40023;DHT22;25713;-35.352;149.036;2023-07-29T04:07:12;13.90;94.90
40023;DHT22;25713;-35.352;149.036;2023-07-29T04:09:43;13.90;94.90
40023;DHT22;25713;-35.352;149.036;2023-07-29T04:12:13;13.90;94.40
40023;DHT22;25713;-35.352;149.036;2023-07-29T04:14:43;14.00;94.30
40023;DHT22;25713;-35.352;149.036;2023-07-29T04:17:12;13.90;94.10
40023;DHT22;25713;-35.352;149.036;2023-07-29T04:19:42;14.00;94.00
40023;DHT22;25713;-35.352;149.036;2023-07-29T04:22:11;14.00;94.00
40023;DHT22;25713;-35.352;149.036;2023-07-29T04:24:42;13.90;93.90
40023;DHT22;25713;-35.352;149.036;2023-07-29T04:27:12;14.00;93.80
40023;DHT22;25713;-35.352;149.036;2023-07-29T04:29:42;14.10;93.70
40023;DHT22;25713;-35.352;149.036;2023-07-29T04:32:11;14.10;93.50
40023;DHT22;25713;-35.352;149.036;2023-07-29T04:34:41;14.00;93.70
40023;DHT22;25713;-35.352;149.036;2023-07-29T04:37:10;14.00;93.70
40023;DHT22;25713;-35.352;149.036;2023-07-29T04:39:40;14.00;93.80
40023;DHT22;25713;-35.352;149.036;2023-07-29T04:42:11;14.10;93.60
40023;DHT22;25713;-35.352;149.036;2023-07-29T04:44:41;14.00;93.40
40023;DHT22;25713;-35.352;149.036;2023-07-29T04:47:11;14.00;93.40
40023;DHT22;25713;-35.352;149.036;2023-07-29T04:49:40;14.00;93.50
40023;DHT22;25713;-35.352;149.036;2023-07-29T04:52:11;14.10;93.60
40023;DHT22;25713;-35.352;149.036;2023-07-29T04:54:40;14.00;93.60
40023;DHT22;25713;-35.352;149.036;2023-07-29T04:57:12;14.10;93.60
40023;DHT22;25713;-35.352;149.036;2023-07-29T04:59:41;14.10;93.30
40023;DHT22;25713;-35.352;149.036;2023-07-29T05:02:11;14.10;93.20
40023;DHT22;25713;-35.352;149.036;2023-07-29T05:04:41;14.10;93.30
40023;DHT22;25713;-35.352;149.036;2023-07-29T05:07:11;14.10;93.30
40023;DHT22;25713;-35.352;149.036;2023-07-29T05:09:41;14.00;93.40
40023;DHT22;25713;-35.352;149.036;2023-07-29T05:12:12;14.00;93.60
40023;DHT22;25713;-35.352;149.036;2023-07-29T05:14:42;14.00;93.70
40023;DHT22;25713;-35.352;149.036;2023-07-29T05:17:11;14.00;93.80
40023;DHT22;25713;-35.352;149.036;2023-07-29T05:19:42;14.00;94.00
40023;DHT22;25713;-35.352;149.036;2023-07-29T05:22:11;14.00;94.10
40023;DHT22;25713;-35.352;149.036;2023-07-29T05:24:41;14.00;94.00
40023;DHT22;25713;-35.352;149.036;2023-07-29T05:27:14;14.00;94.00
40023;DHT22;25713;-35.352;149.036;2023-07-29T05:29:43;14.00;94.10
40023;DHT22;25713;-35.352;149.036;2023-07-29T05:32:13;14.00;94.00
40023;DHT22;25713;-35.352;149.036;2023-07-29T05:34:44;14.00;94.00
40023;DHT22;25713;-35.352;149.036;2023-07-29T05:37:14;14.00;94.00
40023;DHT22;25713;-35.352;149.036;2023-07-29T05:39:43;14.00;94.10
40023;DHT22;25713;-35.352;149.036;2023-07-29T05:42:15;13.90;94.00
40023;DHT22;25713;-35.352;149.036;2023-07-29T05:44:45;13.90;93.90
40023;DHT22;25713;-35.352;149.036;2023-07-29T05:47:15;13.90;94.00
40023;DHT22;25713;-35.352;149.036;2023-07-29T05:49:44;13.90;94.00
40023;DHT22;25713;-35.352;149.036;2023-07-29T05:52:14;13.90;94.00
40023;DHT22;25713;-35.352;149.036;2023-07-29T05:54:44;13.90;94.10
40023;DHT22;25713;-35.352;149.036;2023-07-29T05:57:16;13.90;94.00
40023;DHT22;25713;-35.352;149.036;2023-07-29T05:59:45;13.90;94.00
40023;DHT22;25713;-35.352;149.036;2023-07-29T06:02:15;13.90;94.20
40023;DHT22;25713;-35.352;149.036;2023-07-29T06:04:45;13.90;94.10
40023;DHT22;25713;-35.352;149.036;2023-07-29T06:07:14;13.90;94.00
40023;DHT22;25713;-35.352;149.036;2023-07-29T06:09:44;13.90;94.20
40023;DHT22;25713;-35.352;149.036;2023-07-29T06:12:15;13.90;94.20
40023;DHT22;25713;-35.352;149.036;2023-07-29T06:14:44;13.90;94.10
40023;DHT22;25713;-35.352;149.036;2023-07-29T06:17:14;13.90;94.10
40023;DHT22;25713;-35.352;149.036;2023-07-29T06:19:44;13.80;94.10
40023;DHT22;25713;-35.352;149.036;2023-07-29T06:22:13;13.80;94.10
40023;DHT22;25713;-35.352;149.036;2023-07-29T06:24:44;13.80;94.20
40023;DHT22;25713;-35.352;149.036;2023-07-29T06:27:15;13.80;94.20
40023;DHT22;25713;-35.352;149.036;2023-07-29T06:29:45;13.80;94.20
40023;DHT22;25713;-35.352;149.036;2023-07-29T06:32:14;13.80;94.20
40023;DHT22;25713;-35.352;149.036;2023-07-29T06:34:44;13.80;94.10
40023;DHT22;25713;-35.352;149.036;2023-07-29T06:37:13;13.80;94.00
40023;DHT22;25713;-35.352;149.036;2023-07-29T06:39:43;13.80;94.10
40023;DHT22;25713;-35.352;149.036;2023-07-29T06:42:12;13.80;93.80
40023;DHT22;25713;-35.352;149.036;2023-07-29T06:44:43;13.80;93.80
40023;DHT22;25713;-35.352;149.036;2023-07-29T06:47:13;13.80;93.60
40023;DHT22;25713;-35.352;149.036;2023-07-29T06:49:43;13.70;93.30
40023;DHT22;25713;-35.352;149.036;2023-07-29T06:52:12;13.70;93.20
40023;DHT22;25713;-35.352;149.036;2023-07-29T06:54:42;13.70;93.30
40023;DHT22;25713;-35.352;149.036;2023-07-29T06:57:12;13.70;93.20
40023;DHT22;25713;-35.352;149.036;2023-07-29T06:59:43;13.70;93.30
40023;DHT22;25713;-35.352;149.036;2023-07-29T07:02:13;13.60;93.40
40023;DHT22;25713;-35.352;149.036;2023-07-29T07:04:43;13.60;93.40
40023;DHT22;25713;-35.352;149.036;2023-07-29T07:07:12;13.70;93.60
40023;DHT22;25713;-35.352;149.036;2023-07-29T07:09:42;13.60;93.50
40023;DHT22;25713;-35.352;149.036;2023-07-29T07:12:11;13.60;93.60
40023;DHT22;25713;-35.352;149.036;2023-07-29T07:14:43;13.60;93.60
40023;DHT22;25713;-35.352;149.036;2023-07-29T07:17:13;13.60;93.80
40023;DHT22;25713;-35.352;149.036;2023-07-29T07:19:43;13.60;93.80
40023;DHT22;25713;-35.352;149.036;2023-07-29T07:22:12;13.60;93.70
40023;DHT22;25713;-35.352;149.036;2023-07-29T07:24:42;13.60;93.80
40023;DHT22;25713;-35.352;149.036;2023-07-29T07:27:12;13.60;93.70
40023;DHT22;25713;-35.352;149.036;2023-07-29T07:29:43;13.60;93.60
40023;DHT22;25713;-35.352;149.036;2023-07-29T07:32:12;13.50;93.70
40023;DHT22;25713;-35.352;149.036;2023-07-29T07:34:42;13.60;93.90
40023;DHT22;25713;-35.352;149.036;2023-07-29T07:37:13;13.60;93.90
40023;DHT22;25713;-35.352;149.036;2023-07-29T07:39:43;13.60;94.30
40023;DHT22;25713;-35.352;149.036;2023-07-29T07:42:12;13.60;94.00
40023;DHT22;25713;-35.352;149.036;2023-07-29T07:44:45;13.60;94.00
40023;DHT22;25713;-35.352;149.036;2023-07-29T07:47:15;13.60;94.00
40023;DHT22;25713;-35.352;149.036;2023-07-29T07:49:44;13.60;94.10
40023;DHT22;25713;-35.352;149.036;2023-07-29T07:52:14;13.60;94.10
40023;DHT22;25713;-35.352;149.036;2023-07-29T07:54:43;13.60;94.10
40023;DHT22;25713;-35.352;149.036;2023-07-29T07:57:13;13.50;94.00
40023;DHT22;25713;-35.352;149.036;2023-07-29T07:59:43;13.50;94.10
40023;DHT22;25713;-35.352;149.036;2023-07-29T08:02:14;13.50;94.00
40023;DHT22;25713;-35.352;149.036;2023-07-29T08:04:44;13.50;94.10
40023;DHT22;25713;-35.352;149.036;2023-07-29T08:07:13;13.50;94.10
40023;DHT22;25713;-35.352;149.036;2023-07-29T08:09:43;13.50;94.10
40023;DHT22;25713;-35.352;149.036;2023-07-29T08:12:12;13.50;94.20
40023;DHT22;25713;-35.352;149.036;2023-07-29T08:14:42;13.50;94.20
40023;DHT22;25713;-35.352;149.036;2023-07-29T08:17:13;13.50;94.20
40023;DHT22;25713;-35.352;149.036;2023-07-29T08:19:44;13.50;94.20
40023;DHT22;25713;-35.352;149.036;2023-07-29T08:22:13;13.50;94.20
40023;DHT22;25713;-35.352;149.036;2023-07-29T08:24:43;13.50;94.30
40023;DHT22;25713;-35.352;149.036;2023-07-29T08:27:12;13.50;94.20
40023;DHT22;25713;-35.352;149.036;2023-07-29T08:29:42;13.40;94.20
40023;DHT22;25713;-35.352;149.036;2023-07-29T08:32:13;13.40;94.00
40023;DHT22;25713;-35.352;149.036;2023-07-29T08:34:43;13.40;94.20
40023;DHT22;25713;-35.352;149.036;2023-07-29T08:37:12;13.40;94.30
40023;DHT22;25713;-35.352;149.036;2023-07-29T08:39:42;13.40;94.30
40023;DHT22;25713;-35.352;149.036;2023-07-29T08:42:12;13.40;94.30
40023;DHT22;25713;-35.352;149.036;2023-07-29T08:44:44;13.40;94.60
40023;DHT22;25713;-35.352;149.036;2023-07-29T08:47:16;13.40;94.40
40023;DHT22;25713;-35.352;149.036;2023-07-29T08:49:46;13.40;94.40
40023;DHT22;25713;-35.352;149.036;2023-07-29T08:52:16;13.40;94.30
40023;DHT22;25713;-35.352;149.036;2023-07-29T08:54:46;13.40;94.30
40023;DHT22;25713;-35.352;149.036;2023-07-29T08:57:16;13.40;94.40
40023;DHT22;25713;-35.352;149.036;2023-07-29T08:59:45;13.30;94.40
40023;DHT22;25713;-35.352;149.036;2023-07-29T09:02:18;13.40;94.50
40023;DHT22;25713;-35.352;149.036;2023-07-29T09:04:47;13.40;94.50
40023;DHT22;25713;-35.352;149.036;2023-07-29T09:07:17;13.30;94.50
40023;DHT22;25713;-35.352;149.036;2023-07-29T09:09:47;13.40;94.50
40023;DHT22;25713;-35.352;149.036;2023-07-29T09:12:17;13.30;94.50
40023;DHT22;25713;-35.352;149.036;2023-07-29T09:14:46;13.30;94.60
40023;DHT22;25713;-35.352;149.036;2023-07-29T09:17:17;13.30;94.60
40023;DHT22;25713;-35.352;149.036;2023-07-29T09:19:49;13.40;94.60
40023;DHT22;25713;-35.352;149.036;2023-07-29T09:22:20;13.30;94.60
40023;DHT22;25713;-35.352;149.036;2023-07-29T09:24:51;13.30;94.60
40023;DHT22;25713;-35.352;149.036;2023-07-29T09:27:27;13.30;94.60
40023;DHT22;25713;-35.352;149.036;2023-07-29T09:29:58;13.30;94.70
40023;DHT22;25713;-35.352;149.036;2023-07-29T09:32:29;13.30;94.70
40023;DHT22;25713;-35.352;149.036;2023-07-29T09:34:59;13.30;94.70
40023;DHT22;25713;-35.352;149.036;2023-07-29T09:37:28;13.30;94.70
40023;DHT22;25713;-35.352;149.036;2023-07-29T09:39:58;13.30;94.70
40023;DHT22;25713;-35.352;149.036;2023-07-29T09:42:28;13.30;94.70
40023;DHT22;25713;-35.352;149.036;2023-07-29T09:44:57;13.30;94.70
40023;DHT22;25713;-35.352;149.036;2023-07-29T09:47:29;13.20;94.70
40023;DHT22;25713;-35.352;149.036;2023-07-29T09:49:58;13.20;94.70
40023;DHT22;25713;-35.352;149.036;2023-07-29T09:52:29;13.30;95.00
40023;DHT22;25713;-35.352;149.036;2023-07-29T09:54:58;13.20;94.70
40023;DHT22;25713;-35.352;149.036;2023-07-29T09:57:28;13.20;94.70
40023;DHT22;25713;-35.352;149.036;2023-07-29T09:59:58;13.20;94.80
40023;DHT22;25713;-35.352;149.036;2023-07-29T10:02:30;13.20;94.80
40023;DHT22;25713;-35.352;149.036;2023-07-29T10:05:00;13.20;95.10
40023;DHT22;25713;-35.352;149.036;2023-07-29T10:07:30;13.20;94.80
40023;DHT22;25713;-35.352;149.036;2023-07-29T10:10:00;13.20;94.80
40023;DHT22;25713;-35.352;149.036;2023-07-29T10:12:31;13.20;94.90
40023;DHT22;25713;-35.352;149.036;2023-07-29T10:15:02;13.20;94.90
40023;DHT22;25713;-35.352;149.036;2023-07-29T10:17:35;13.20;94.90
40023;DHT22;25713;-35.352;149.036;2023-07-29T10:20:06;13.20;95.00
40023;DHT22;25713;-35.352;149.036;2023-07-29T10:22:39;13.20;94.90
40023;DHT22;25713;-35.352;149.036;2023-07-29T10:25:12;13.20;94.90
40023;DHT22;25713;-35.352;149.036;2023-07-29T10:27:48;13.20;94.90
40023;DHT22;25713;-35.352;149.036;2023-07-29T10:30:18;13.20;94.80
40023;DHT22;25713;-35.352;149.036;2023-07-29T10:32:50;13.20;94.80
40023;DHT22;25713;-35.352;149.036;2023-07-29T10:35:21;13.10;94.90
40023;DHT22;25713;-35.352;149.036;2023-07-29T10:37:50;13.10;95.10
40023;DHT22;25713;-35.352;149.036;2023-07-29T10:40:20;13.20;94.90
40023;DHT22;25713;-35.352;149.036;2023-07-29T10:43:11;13.20;94.90
40023;DHT22;25713;-35.352;149.036;2023-07-29T10:45:41;13.20;95.00
40023;DHT22;25713;-35.352;149.036;2023-07-29T10:48:39;13.10;95.00
40023;DHT22;25713;-35.352;149.036;2023-07-29T10:51:24;13.10;95.00
40023;DHT22;25713;-35.352;149.036;2023-07-29T10:53:54;13.10;95.00
40023;DHT22;25713;-35.352;149.036;2023-07-29T10:56:31;13.10;95.00
40023;DHT22;25713;-35.352;149.036;2023-07-29T11:01:53;13.20;95.10
40023;DHT22;25713;-35.352;149.036;2023-07-29T11:04:28;13.10;95.10
40023;DHT22;25713;-35.352;149.036;2023-07-29T11:07:31;13.10;95.00
40023;DHT22;25713;-35.352;149.036;2023-07-29T11:10:04;13.10;95.20
40023;DHT22;25713;-35.352;149.036;2023-07-29T11:12:42;13.10;95.20
40023;DHT22;25713;-35.352;149.036;2023-07-29T11:15:16;13.20;95.20
40023;DHT22;25713;-35.352;149.036;2023-07-29T11:17:47;13.10;95.50
40023;DHT22;25713;-35.352;149.036;2023-07-29T11:20:21;13.10;95.20
40023;DHT22;25713;-35.352;149.036;2023-07-29T11:22:52;13.10;95.20
40023;DHT22;25713;-35.352;149.036;2023-07-29T11:25:22;13.10;95.40
40023;DHT22;25713;-35.352;149.036;2023-07-29T11:27:54;13.10;95.30
40023;DHT22;25713;-35.352;149.036;2023-07-29T11:30:24;13.10;95.30
40023;DHT22;25713;-35.352;149.036;2023-07-29T11:32:54;13.10;95.40
40023;DHT22;25713;-35.352;149.036;2023-07-29T11:35:26;13.10;95.30
40023;DHT22;25713;-35.352;149.036;2023-07-29T11:37:56;13.10;95.40
40023;DHT22;25713;-35.352;149.036;2023-07-29T11:40:26;13.10;95.40
40023;DHT22;25713;-35.352;149.036;2023-07-29T11:42:55;13.10;95.50
40023;DHT22;25713;-35.352;149.036;2023-07-29T11:45:25;13.10;95.50
40023;DHT22;25713;-35.352;149.036;2023-07-29T11:47:55;13.10;95.50
40023;DHT22;25713;-35.352;149.036;2023-07-29T11:50:27;13.10;95.50
40023;DHT22;25713;-35.352;149.036;2023-07-29T11:52:56;13.10;95.50
40023;DHT22;25713;-35.352;149.036;2023-07-29T11:55:26;13.10;95.40
40023;DHT22;25713;-35.352;149.036;2023-07-29T11:57:56;13.10;95.50
40023;DHT22;25713;-35.352;149.036;2023-07-29T12:00:27;13.10;95.50
40023;DHT22;25713;-35.352;149.036;2023-07-29T12:02:57;13.00;95.50
40023;DHT22;25713;-35.352;149.036;2023-07-29T12:05:29;13.10;95.50
40023;DHT22;25713;-35.352;149.036;2023-07-29T12:07:58;13.10;95.50
40023;DHT22;25713;-35.352;149.036;2023-07-29T12:10:28;13.00;95.50
40023;DHT22;25713;-35.352;149.036;2023-07-29T12:12:58;13.10;95.50
40023;DHT22;25713;-35.352;149.036;2023-07-29T12:15:28;13.00;95.40
40023;DHT22;25713;-35.352;149.036;2023-07-29T12:17:58;13.10;95.50
40023;DHT22;25713;-35.352;149.036;2023-07-29T12:20:31;13.00;95.50
40023;DHT22;25713;-35.352;149.036;2023-07-29T12:22:59;13.10;95.50
40023;DHT22;25713;-35.352;149.036;2023-07-29T12:25:30;13.10;95.60
40023;DHT22;25713;-35.352;149.036;2023-07-29T12:28:04;13.10;95.60
40023;DHT22;25713;-35.352;149.036;2023-07-29T12:30:34;13.10;95.50
40023;DHT22;25713;-35.352;149.036;2023-07-29T12:33:03;13.00;95.60
40023;DHT22;25713;-35.352;149.036;2023-07-29T12:35:41;13.10;95.60
40023;DHT22;25713;-35.352;149.036;2023-07-29T12:38:10;13.10;95.60
40023;DHT22;25713;-35.352;149.036;2023-07-29T12:40:40;13.10;95.60
40023;DHT22;25713;-35.352;149.036;2023-07-29T12:43:10;13.00;95.60
40023;DHT22;25713;-35.352;149.036;2023-07-29T12:45:39;13.00;95.60
40023;DHT22;25713;-35.352;149.036;2023-07-29T12:48:09;13.10;95.60
40023;DHT22;25713;-35.352;149.036;2023-07-29T12:50:40;13.00;95.60
40023;DHT22;25713;-35.352;149.036;2023-07-29T12:53:10;13.00;95.60
40023;DHT22;25713;-35.352;149.036;2023-07-29T12:55:40;13.00;95.60
40023;DHT22;25713;-35.352;149.036;2023-07-29T12:58:09;13.00;95.70
40023;DHT22;25713;-35.352;149.036;2023-07-29T13:00:39;13.00;95.70
40023;DHT22;25713;-35.352;149.036;2023-07-29T13:03:08;13.00;95.70
40023;DHT22;25713;-35.352;149.036;2023-07-29T13:05:40;13.00;95.70
40023;DHT22;25713;-35.352;149.036;2023-07-29T13:08:09;13.00;95.80
40023;DHT22;25713;-35.352;149.036;2023-07-29T13:10:39;13.00;95.80
40023;DHT22;25713;-35.352;149.036;2023-07-29T13:13:08;13.00;95.80
40023;DHT22;25713;-35.352;149.036;2023-07-29T13:15:38;13.00;95.70
40023;DHT22;25713;-35.352;149.036;2023-07-29T13:18:07;13.00;95.70
40023;DHT22;25713;-35.352;149.036;2023-07-29T13:20:39;13.00;95.70
40023;DHT22;25713;-35.352;149.036;2023-07-29T13:23:09;13.00;95.80
40023;DHT22;25713;-35.352;149.036;2023-07-29T13:25:38;12.90;95.70
40023;DHT22;25713;-35.352;149.036;2023-07-29T13:30:37;13.00;95.80
40023;DHT22;25713;-35.352;149.036;2023-07-29T13:33:07;13.00;95.80
40023;DHT22;25713;-35.352;149.036;2023-07-29T13:35:37;12.90;95.70
40023;DHT22;25713;-35.352;149.036;2023-07-29T13:38:08;13.00;96.00
40023;DHT22;25713;-35.352;149.036;2023-07-29T13:40:38;13.00;95.70
40023;DHT22;25713;-35.352;149.036;2023-07-29T13:43:07;12.90;95.70
40023;DHT22;25713;-35.352;149.036;2023-07-29T13:45:37;12.90;95.70
40023;DHT22;25713;-35.352;149.036;2023-07-29T13:48:06;13.00;95.70
40023;DHT22;25713;-35.352;149.036;2023-07-29T13:50:35;13.00;95.70
40023;DHT22;25713;-35.352;149.036;2023-07-29T13:53:07;12.90;95.70
40023;DHT22;25713;-35.352;149.036;2023-07-29T13:55:37;12.90;95.70
40023;DHT22;25713;-35.352;149.036;2023-07-29T13:58:06;13.00;95.70
40023;DHT22;25713;-35.352;149.036;2023-07-29T14:00:36;12.90;95.80
40023;DHT22;25713;-35.352;149.036;2023-07-29T14:03:06;12.90;95.70
40023;DHT22;25713;-35.352;149.036;2023-07-29T14:05:35;12.90;95.70
40023;DHT22;25713;-35.352;149.036;2023-07-29T14:08:07;12.90;95.70
40023;DHT22;25713;-35.352;149.036;2023-07-29T14:10:36;12.90;95.60
40023;DHT22;25713;-35.352;149.036;2023-07-29T14:13:06;12.90;95.60
40023;DHT22;25713;-35.352;149.036;2023-07-29T14:15:35;12.90;95.60
40023;DHT22;25713;-35.352;149.036;2023-07-29T14:18:05;12.90;95.70
40023;DHT22;25713;-35.352;149.036;2023-07-29T14:20:34;12.90;95.70
40023;DHT22;25713;-35.352;149.036;2023-07-29T14:23:06;12.80;95.80
40023;DHT22;25713;-35.352;149.036;2023-07-29T14:25:36;12.80;95.90
40023;DHT22;25713;-35.352;149.036;2023-07-29T14:28:05;12.70;96.10
40023;DHT22;25713;-35.352;149.036;2023-07-29T14:30:35;12.80;96.00
40023;DHT22;25713;-35.352;149.036;2023-07-29T14:33:04;12.80;95.90
40023;DHT22;25713;-35.352;149.036;2023-07-29T14:35:34;12.80;95.90
40023;DHT22;25713;-35.352;149.036;2023-07-29T14:38:03;12.80;95.90
40023;DHT22;25713;-35.352;149.036;2023-07-29T14:40:35;12.80;95.80
40023;DHT22;25713;-35.352;149.036;2023-07-29T14:43:05;12.80;95.80
40023;DHT22;25713;-35.352;149.036;2023-07-29T14:45:34;12.80;95.80
40023;DHT22;25713;-35.352;149.036;2023-07-29T15:50:19;12.50;95.90
40023;DHT22;25713;-35.352;149.036;2023-07-29T15:52:49;12.50;96.10
40023;DHT22;25713;-35.352;149.036;2023-07-29T15:55:19;12.50;96.20
40023;DHT22;25713;-35.352;149.036;2023-07-29T15:57:49;12.50;96.20
40023;DHT22;25713;-35.352;149.036;2023-07-29T16:00:19;12.50;96.10
40023;DHT22;25713;-35.352;149.036;2023-07-29T16:02:48;12.50;96.00
40023;DHT22;25713;-35.352;149.036;2023-07-29T16:05:21;12.50;96.20
40023;DHT22;25713;-35.352;149.036;2023-07-29T16:07:51;12.50;95.90
40023;DHT22;25713;-35.352;149.036;2023-07-29T16:10:20;12.60;95.80
40023;DHT22;25713;-35.352;149.036;2023-07-29T16:12:50;12.60;95.80
40023;DHT22;25713;-35.352;149.036;2023-07-29T16:15:19;12.60;95.70